createdAt,value
2018-12-14T00:00:44.970Z,71.91
2018-12-14T00:01:44.945Z,72.66
2018-12-14T00:02:44.913Z,72.66
2018-12-14T00:03:44.899Z,73.13
2018-12-14T00:04:44.877Z,71.15
2018-12-14T00:05:44.854Z,69.35
2018-12-14T00:06:44.832Z,69.17
2018-12-14T00:07:44.811Z,68.60
2018-12-14T00:08:44.793Z,68.13
2018-12-14T00:09:44.776Z,68.23
2018-12-14T00:10:44.745Z,68.00
2018-12-14T00:11:45.626Z,68.41
2018-12-14T00:12:44.708Z,68.66
2018-12-14T00:13:44.683Z,69.32
2018-12-14T00:14:44.661Z,70.07
2018-12-14T00:15:44.651Z,70.54
2018-12-14T00:16:44.633Z,70.07
2018-12-14T00:17:44.622Z,70.64
2018-12-14T00:18:44.577Z,70.54
2018-12-14T00:19:44.550Z,71.21
2018-12-14T00:20:44.533Z,71.40
2018-12-14T00:21:44.511Z,72.15
2018-12-14T00:22:44.490Z,73.19
2018-12-14T00:23:44.461Z,73.38
2018-12-14T00:24:44.450Z,74.07
2018-12-14T00:25:44.425Z,75.17
2018-12-14T00:26:44.399Z,75.30
2018-12-14T00:27:44.381Z,75.40
2018-12-14T00:28:44.364Z,74.07
2018-12-14T00:29:44.336Z,73.69
2018-12-14T00:30:44.318Z,73.69
2018-12-14T00:31:44.295Z,73.41
2018-12-14T00:32:44.272Z,74.07
2018-12-14T00:33:44.250Z,74.07
2018-12-14T00:34:44.222Z,74.26
2018-12-14T00:35:44.217Z,74.83
2018-12-14T00:36:44.190Z,75.02
2018-12-14T00:37:44.166Z,75.68
2018-12-14T00:38:44.142Z,75.40
2018-12-14T00:39:44.128Z,75.11
2018-12-14T00:40:44.099Z,73.69
2018-12-14T00:41:44.084Z,72.85
2018-12-14T00:42:44.055Z,69.45
2018-12-14T00:43:44.037Z,67.47
2018-12-14T00:44:44.017Z,66.34
2018-12-14T00:45:43.989Z,65.01
2018-12-14T00:46:43.971Z,64.36
2018-12-14T00:47:43.949Z,64.07
2018-12-14T00:48:43.928Z,61.80
2018-12-14T00:49:43.909Z,61.43
2018-12-14T00:50:43.887Z,61.90
2018-12-14T00:51:43.863Z,62.28
2018-12-14T00:52:43.846Z,61.71
2018-12-14T00:53:43.830Z,61.71
2018-12-14T00:54:43.800Z,62.47
2018-12-14T00:55:43.780Z,63.79
2018-12-14T00:56:43.752Z,63.79
2018-12-14T00:57:43.736Z,64.64
2018-12-14T00:58:43.713Z,65.20
2018-12-14T00:59:43.699Z,65.77
2018-12-14T01:00:43.676Z,65.77
2018-12-14T01:01:43.650Z,65.01
2018-12-14T01:02:43.662Z,63.89
2018-12-14T01:03:43.620Z,64.45
2018-12-14T01:04:43.597Z,64.64
2018-12-14T01:05:43.563Z,66.34
2018-12-14T01:06:43.545Z,67.28
2018-12-14T01:07:43.519Z,67.09
2018-12-14T01:08:43.496Z,65.96
2018-12-14T01:09:43.481Z,65.58
2018-12-14T01:10:43.460Z,65.77
2018-12-14T01:11:43.440Z,66.05
2018-12-14T01:12:43.416Z,66.62
2018-12-14T01:13:43.392Z,67.09
2018-12-14T01:14:43.367Z,67.75
2018-12-14T01:15:43.353Z,68.51
2018-12-14T01:16:43.331Z,67.57
2018-12-14T01:17:43.310Z,66.05
2018-12-14T01:18:43.285Z,63.41
2018-12-14T01:19:43.265Z,62.66
2018-12-14T01:20:43.251Z,63.51
2018-12-14T01:21:43.225Z,67.00
2018-12-14T01:22:43.198Z,69.45
2018-12-14T01:23:43.182Z,70.20
2018-12-14T01:24:43.164Z,71.06
2018-12-14T01:25:43.145Z,72.38
2018-12-14T01:26:43.118Z,72.56
2018-12-14T01:27:43.094Z,71.81
2018-12-14T01:28:43.076Z,72.00
2018-12-14T01:29:43.050Z,72.19
2018-12-14T01:30:43.029Z,72.00
2018-12-14T01:31:43.014Z,72.47
2018-12-14T01:32:42.991Z,72.85
2018-12-14T01:33:42.981Z,72.66
2018-12-14T01:34:42.943Z,70.68
2018-12-14T01:35:42.945Z,69.17
2018-12-14T01:36:42.901Z,68.88
2018-12-14T01:37:42.885Z,68.79
2018-12-14T01:38:42.860Z,68.79
2018-12-14T01:39:42.842Z,69.45
2018-12-14T01:40:42.826Z,69.35
2018-12-14T01:41:42.792Z,69.73
2018-12-14T01:42:42.796Z,70.39
2018-12-14T01:43:42.754Z,70.87
2018-12-14T01:44:42.732Z,70.96
2018-12-14T01:45:42.712Z,71.91
2018-12-14T01:46:42.695Z,72.19
2018-12-14T01:47:42.673Z,70.87
2018-12-14T01:48:42.657Z,70.87
2018-12-14T01:49:42.633Z,70.39
2018-12-14T01:50:42.603Z,72.09
2018-12-14T01:51:42.588Z,72.19
2018-12-14T01:52:42.567Z,73.03
2018-12-14T01:53:42.540Z,73.41
2018-12-14T01:54:42.524Z,73.51
2018-12-14T01:55:42.501Z,73.98
2018-12-14T01:56:42.478Z,73.79
2018-12-14T01:57:42.463Z,73.32
2018-12-14T01:58:42.438Z,73.79
2018-12-14T01:59:42.422Z,73.69
2018-12-14T02:00:42.458Z,74.07
2018-12-14T02:01:42.376Z,74.17
2018-12-14T02:02:42.351Z,74.64
2018-12-14T02:03:42.331Z,74.74
2018-12-14T02:04:42.313Z,75.02
2018-12-14T02:05:42.294Z,75.30
2018-12-14T02:06:42.271Z,75.21
2018-12-14T02:07:42.243Z,75.49
2018-12-14T02:08:42.237Z,75.59
2018-12-14T02:09:42.208Z,75.59
2018-12-14T02:10:42.184Z,75.49
2018-12-14T02:11:42.166Z,75.02
2018-12-14T02:12:42.156Z,75.40
2018-12-14T02:13:42.126Z,75.30
2018-12-14T02:14:42.099Z,75.49
2018-12-14T02:15:42.077Z,75.30
2018-12-14T02:16:42.060Z,74.83
2018-12-14T02:17:42.043Z,73.88
2018-12-14T02:18:42.020Z,71.81
2018-12-14T02:19:41.998Z,71.43
2018-12-14T02:20:41.976Z,71.43
2018-12-14T02:21:41.954Z,72.19
2018-12-14T02:22:41.940Z,72.28
2018-12-14T02:23:41.913Z,72.56
2018-12-14T02:24:41.890Z,73.60
2018-12-14T02:25:41.870Z,73.51
2018-12-14T02:26:41.850Z,74.26
2018-12-14T02:27:41.828Z,73.51
2018-12-14T02:28:41.900Z,73.60
2018-12-14T02:29:41.786Z,73.51
2018-12-14T02:30:41.766Z,74.17
2018-12-14T02:31:41.747Z,73.79
2018-12-14T02:32:41.722Z,72.75
2018-12-14T02:33:41.703Z,73.13
2018-12-14T02:34:41.690Z,73.32
2018-12-14T02:35:41.655Z,73.51
2018-12-14T02:36:41.652Z,71.34
2018-12-14T02:37:41.618Z,68.41
2018-12-14T02:38:41.597Z,67.66
2018-12-14T02:39:41.574Z,68.51
2018-12-14T02:40:41.558Z,69.07
2018-12-14T02:41:41.537Z,69.54
2018-12-14T02:42:41.510Z,70.02
2018-12-14T02:43:41.522Z,70.77
2018-12-14T02:44:41.464Z,70.87
2018-12-14T02:45:41.454Z,71.81
2018-12-14T02:46:41.435Z,72.66
2018-12-14T02:47:41.406Z,72.85
2018-12-14T02:48:41.418Z,73.41
2018-12-14T02:49:41.366Z,74.55
2018-12-14T02:50:41.347Z,74.55
2018-12-14T02:51:41.319Z,74.07
2018-12-14T02:52:41.305Z,73.98
2018-12-14T02:53:41.282Z,74.07
2018-12-14T02:54:41.266Z,73.98
2018-12-14T02:55:41.276Z,74.64
2018-12-14T02:56:41.220Z,74.64
2018-12-14T02:57:41.202Z,74.83
2018-12-14T02:58:41.175Z,74.55
2018-12-14T02:59:41.158Z,74.07
2018-12-14T03:00:41.139Z,72.94
2018-12-14T03:01:41.120Z,71.53
2018-12-14T03:02:41.104Z,71.91
2018-12-14T03:03:41.070Z,72.19
2018-12-14T03:04:41.061Z,73.13
2018-12-14T03:05:41.041Z,74.07
2018-12-14T03:06:41.011Z,74.07
2018-12-14T03:07:40.990Z,75.02
2018-12-14T03:08:40.972Z,73.88
2018-12-14T03:09:40.953Z,73.41
2018-12-14T03:10:40.926Z,72.85
2018-12-14T03:11:40.916Z,72.28
2018-12-14T03:12:40.885Z,72.00
2018-12-14T03:13:40.876Z,69.64
2018-12-14T03:14:40.846Z,69.26
2018-12-14T03:15:40.821Z,70.20
2018-12-14T03:16:40.798Z,71.53
2018-12-14T03:17:40.788Z,72.94
2018-12-14T03:18:40.755Z,73.69
2018-12-14T03:19:40.740Z,74.26
2018-12-14T03:20:40.723Z,74.07
2018-12-14T03:21:40.698Z,73.98
2018-12-14T03:22:40.682Z,74.26
2018-12-14T03:23:40.654Z,74.55
2018-12-14T03:24:40.629Z,74.45
2018-12-14T03:25:40.609Z,74.64
2018-12-14T03:26:40.595Z,74.36
2018-12-14T03:27:40.568Z,74.26
2018-12-14T03:28:40.547Z,74.07
2018-12-14T03:29:40.531Z,73.79
2018-12-14T03:30:40.507Z,73.51
2018-12-14T03:31:40.486Z,72.75
2018-12-14T03:32:40.472Z,73.22
2018-12-14T03:33:40.445Z,72.28
2018-12-14T03:34:40.417Z,72.00
2018-12-14T03:35:40.401Z,71.91
2018-12-14T03:36:40.382Z,71.81
2018-12-14T03:37:40.362Z,71.72
2018-12-14T03:38:40.331Z,71.81
2018-12-14T03:39:40.334Z,71.81
2018-12-14T03:40:40.291Z,71.62
2018-12-14T03:41:40.279Z,71.34
2018-12-14T03:42:40.255Z,70.11
2018-12-14T03:43:40.235Z,69.45
2018-12-14T03:44:40.213Z,69.54
2018-12-14T03:45:40.207Z,69.73
2018-12-14T03:46:40.166Z,70.49
2018-12-14T03:47:40.150Z,71.43
2018-12-14T03:48:40.137Z,70.96
2018-12-14T03:49:40.106Z,68.60
2018-12-14T03:50:40.088Z,67.47
2018-12-14T03:51:40.060Z,67.85
2018-12-14T03:52:40.044Z,69.17
2018-12-14T03:53:40.021Z,70.39
2018-12-14T03:54:40.003Z,71.06
2018-12-14T03:55:39.981Z,71.15
2018-12-14T03:56:39.960Z,69.83
2018-12-14T03:57:39.935Z,69.07
2018-12-14T03:58:39.918Z,68.13
2018-12-14T03:59:39.897Z,67.66
2018-12-14T04:00:39.871Z,67.75
2018-12-14T04:01:39.901Z,68.60
2018-12-14T04:02:39.831Z,69.35
2018-12-14T04:03:39.815Z,70.02
2018-12-14T04:04:39.786Z,70.87
2018-12-14T04:05:39.775Z,70.96
2018-12-14T04:06:39.749Z,71.81
2018-12-14T04:07:39.734Z,72.56
2018-12-14T04:08:39.704Z,72.47
2018-12-14T04:09:39.687Z,71.81
2018-12-14T04:10:39.675Z,72.00
2018-12-14T04:11:39.633Z,71.62
2018-12-14T04:12:41.883Z,72.38
2018-12-14T04:13:39.602Z,72.09
2018-12-14T04:14:39.574Z,72.47
2018-12-14T04:15:39.624Z,72.56
2018-12-14T04:16:39.534Z,72.75
2018-12-14T04:17:39.515Z,72.56
2018-12-14T04:18:39.488Z,72.19
2018-12-14T04:19:39.468Z,72.09
2018-12-14T04:20:39.451Z,72.56
2018-12-14T04:21:39.426Z,72.19
2018-12-14T04:22:39.403Z,71.72
2018-12-14T04:23:39.404Z,70.54
2018-12-14T04:24:39.363Z,70.30
2018-12-14T04:25:39.347Z,70.20
2018-12-14T04:26:39.398Z,70.11
2018-12-14T04:27:39.297Z,70.39
2018-12-14T04:28:39.275Z,70.68
2018-12-14T04:29:39.255Z,71.15
2018-12-14T04:30:39.239Z,72.00
2018-12-14T04:31:39.212Z,72.75
2018-12-14T04:32:39.186Z,73.22
2018-12-14T04:33:39.170Z,72.15
2018-12-14T04:34:39.147Z,71.43
2018-12-14T04:35:39.124Z,71.11
2018-12-14T04:36:39.114Z,71.25
2018-12-14T04:37:39.083Z,70.83
2018-12-14T04:38:39.065Z,69.42
2018-12-14T04:39:39.041Z,70.17
2018-12-14T04:40:39.026Z,69.42
2018-12-14T04:41:38.998Z,69.89
2018-12-14T04:42:38.972Z,70.45
2018-12-14T04:43:38.953Z,71.02
2018-12-14T04:44:38.933Z,71.87
2018-12-14T04:45:38.913Z,72.06
2018-12-14T04:46:38.892Z,72.72
2018-12-14T04:47:38.871Z,73.38
2018-12-14T04:48:38.842Z,73.19
2018-12-14T04:49:38.825Z,72.62
2018-12-14T04:50:38.816Z,73.00
2018-12-14T04:51:38.787Z,72.15
2018-12-14T04:52:38.799Z,71.87
2018-12-14T04:53:38.739Z,71.49
2018-12-14T04:54:38.716Z,70.92
2018-12-14T04:55:38.698Z,70.83
2018-12-14T04:56:38.679Z,70.83
2018-12-14T04:57:38.657Z,70.83
2018-12-14T04:58:38.689Z,70.45
2018-12-14T04:59:38.618Z,70.92
2018-12-14T05:00:38.590Z,70.64
2018-12-14T05:01:38.566Z,71.30
2018-12-14T05:02:38.541Z,71.49
2018-12-14T05:03:38.525Z,72.06
2018-12-14T05:04:38.496Z,72.72
2018-12-14T05:05:38.484Z,71.49
2018-12-14T05:06:38.578Z,70.54
2018-12-14T05:07:38.441Z,70.83
2018-12-14T05:08:38.423Z,70.64
2018-12-14T05:09:38.400Z,70.92
2018-12-14T05:10:38.383Z,72.06
2018-12-14T05:11:39.377Z,71.49
2018-12-14T05:12:38.331Z,71.02
2018-12-14T05:13:38.309Z,70.45
2018-12-14T05:14:38.289Z,70.83
2018-12-14T05:15:38.261Z,71.40
2018-12-14T05:16:38.246Z,71.02
2018-12-14T05:17:38.223Z,71.02
2018-12-14T05:18:38.196Z,71.77
2018-12-14T05:19:38.180Z,72.72
2018-12-14T05:20:38.152Z,73.00
2018-12-14T05:21:38.133Z,73.19
2018-12-14T05:22:38.112Z,72.72
2018-12-14T05:23:38.092Z,72.81
2018-12-14T05:24:38.074Z,72.53
2018-12-14T05:25:38.046Z,71.96
2018-12-14T05:26:38.024Z,72.06
2018-12-14T05:27:37.998Z,72.81
2018-12-14T05:28:37.981Z,73.00
2018-12-14T05:29:37.963Z,73.00
2018-12-14T05:30:37.928Z,73.38
2018-12-14T05:31:37.916Z,73.38
2018-12-14T05:32:37.892Z,74.60
2018-12-14T05:33:37.868Z,73.85
2018-12-14T05:34:37.849Z,73.66
2018-12-14T05:35:37.827Z,73.75
2018-12-14T05:36:37.801Z,72.53
2018-12-14T05:37:37.783Z,71.49
2018-12-14T05:38:37.770Z,70.45
2018-12-14T05:39:37.741Z,70.17
2018-12-14T05:40:37.715Z,70.07
2018-12-14T05:41:37.700Z,71.68
2018-12-14T05:42:37.677Z,71.40
2018-12-14T05:43:37.644Z,71.49
2018-12-14T05:44:37.644Z,70.92
2018-12-14T05:45:37.605Z,71.30
2018-12-14T05:46:37.582Z,70.54
2018-12-14T05:47:37.560Z,70.17
2018-12-14T05:48:37.544Z,70.26
2018-12-14T05:49:37.515Z,69.98
2018-12-14T05:50:37.495Z,70.17
2018-12-14T05:51:37.482Z,70.64
2018-12-14T05:52:37.450Z,70.45
2018-12-14T05:53:37.433Z,71.11
2018-12-14T05:54:37.403Z,70.36
2018-12-14T05:55:37.382Z,70.64
2018-12-14T05:56:37.360Z,70.54
2018-12-14T05:57:37.336Z,71.30
2018-12-14T05:58:37.319Z,71.58
2018-12-14T05:59:37.294Z,71.87
2018-12-14T06:00:37.281Z,71.58
2018-12-14T06:01:37.254Z,72.06
2018-12-14T06:02:37.227Z,71.68
2018-12-14T06:03:37.206Z,71.49
2018-12-14T06:04:37.186Z,70.83
2018-12-14T06:05:37.169Z,71.11
2018-12-14T06:06:37.138Z,71.30
2018-12-14T06:07:37.121Z,72.15
2018-12-14T06:08:37.097Z,72.81
2018-12-14T06:09:37.067Z,74.04
2018-12-14T06:10:37.058Z,74.13
2018-12-14T06:11:37.028Z,74.60
2018-12-14T06:12:37.009Z,75.26
2018-12-14T06:13:36.982Z,75.26
2018-12-14T06:14:36.962Z,75.26
2018-12-14T06:15:36.937Z,75.26
2018-12-14T06:16:36.921Z,74.60
2018-12-14T06:17:36.894Z,74.04
2018-12-14T06:18:36.867Z,73.57
2018-12-14T06:19:36.850Z,73.28
2018-12-14T06:20:36.830Z,73.57
2018-12-14T06:21:36.824Z,73.94
2018-12-14T06:22:36.784Z,73.57
2018-12-14T06:23:36.770Z,73.75
2018-12-14T06:24:36.739Z,73.00
2018-12-14T06:25:36.715Z,71.40
2018-12-14T06:26:36.695Z,70.54
2018-12-14T06:27:36.667Z,70.17
2018-12-14T06:28:36.647Z,70.07
2018-12-14T06:29:36.630Z,70.17
2018-12-14T06:30:36.614Z,69.98
2018-12-14T06:31:36.583Z,70.26
2018-12-14T06:32:36.563Z,69.98
2018-12-14T06:33:36.542Z,70.64
2018-12-14T06:34:36.513Z,71.21
2018-12-14T06:35:36.492Z,72.72
2018-12-14T06:36:36.477Z,73.38
2018-12-14T06:37:36.454Z,74.04
2018-12-14T06:38:36.431Z,75.17
2018-12-14T06:39:36.412Z,74.98
2018-12-14T06:40:36.392Z,74.79
2018-12-14T06:41:36.362Z,73.38
2018-12-14T06:42:36.339Z,73.57
2018-12-14T06:43:36.317Z,73.19
2018-12-14T06:44:36.293Z,73.00
2018-12-14T06:45:36.267Z,73.19
2018-12-14T06:46:36.261Z,73.47
2018-12-14T06:47:36.231Z,73.38
2018-12-14T06:48:36.208Z,73.94
2018-12-14T06:49:36.179Z,74.60
2018-12-14T06:50:36.161Z,74.69
2018-12-14T06:51:37.485Z,74.51
2018-12-14T06:52:36.127Z,74.51
2018-12-14T06:53:36.110Z,74.79
2018-12-14T06:54:36.076Z,74.98
2018-12-14T06:55:36.050Z,75.64
2018-12-14T06:56:36.030Z,74.51
2018-12-14T06:57:36.000Z,72.62
2018-12-14T06:58:35.987Z,70.92
2018-12-14T06:59:35.967Z,70.83
2018-12-14T07:00:35.941Z,70.26
2018-12-14T07:01:35.917Z,70.26
2018-12-14T07:02:35.889Z,69.13
2018-12-14T07:03:35.873Z,69.13
2018-12-14T07:04:35.867Z,69.42
2018-12-14T07:05:35.825Z,70.17
2018-12-14T07:06:35.808Z,71.11
2018-12-14T07:07:35.781Z,72.53
2018-12-14T07:08:35.764Z,73.47
2018-12-14T07:09:35.734Z,74.60
2018-12-14T07:10:35.714Z,74.13
2018-12-14T07:11:35.694Z,73.57
2018-12-14T07:12:35.676Z,73.47
2018-12-14T07:13:35.654Z,72.91
2018-12-14T07:14:35.631Z,72.91
2018-12-14T07:15:35.605Z,73.00
2018-12-14T07:16:35.588Z,73.38
2018-12-14T07:17:35.553Z,74.04
2018-12-14T07:18:35.560Z,73.57
2018-12-14T07:19:35.515Z,74.41
2018-12-14T07:20:35.491Z,73.75
2018-12-14T07:21:35.472Z,74.04
2018-12-14T07:22:35.445Z,74.04
2018-12-14T07:23:35.428Z,72.06
2018-12-14T07:24:35.407Z,71.02
2018-12-14T07:25:35.393Z,70.73
2018-12-14T07:26:35.355Z,70.83
2018-12-14T07:27:35.335Z,70.73
2018-12-14T07:28:35.308Z,70.92
2018-12-14T07:29:35.291Z,72.06
2018-12-14T07:30:35.271Z,71.30
2018-12-14T07:31:35.248Z,70.45
2018-12-14T07:32:37.994Z,70.17
2018-12-14T07:33:35.206Z,70.36
2018-12-14T07:34:35.178Z,70.07
2018-12-14T07:35:41.587Z,70.64
2018-12-14T07:36:35.140Z,70.83
2018-12-14T07:37:35.112Z,71.68
2018-12-14T07:38:35.088Z,71.68
2018-12-14T07:39:35.073Z,72.44
2018-12-14T07:40:35.049Z,72.34
2018-12-14T07:41:35.021Z,72.06
2018-12-14T07:42:35.003Z,71.77
2018-12-14T07:43:35.001Z,71.77
2018-12-14T07:44:35.005Z,71.96
2018-12-14T07:45:34.949Z,72.34
2018-12-14T07:46:34.913Z,72.53
2018-12-14T07:47:34.894Z,73.10
2018-12-14T07:48:34.871Z,73.10
2018-12-14T07:49:34.845Z,73.47
2018-12-14T07:50:34.826Z,73.38
2018-12-14T07:51:34.803Z,73.57
2018-12-14T07:52:34.781Z,74.04
2018-12-14T07:53:34.755Z,73.75
2018-12-14T07:54:34.734Z,73.10
2018-12-14T07:55:34.712Z,72.53
2018-12-14T07:56:34.687Z,72.34
2018-12-14T07:57:34.672Z,71.11
2018-12-14T07:58:34.642Z,70.26
2018-12-14T07:59:34.626Z,69.04
2018-12-14T08:00:34.600Z,68.85
2018-12-14T08:01:34.576Z,69.32
2018-12-14T08:02:34.555Z,69.42
2018-12-14T08:03:34.533Z,68.66
2018-12-14T08:04:34.513Z,67.81
2018-12-14T08:05:34.489Z,68.10
2018-12-14T08:06:34.476Z,68.00
2018-12-14T08:07:34.445Z,67.72
2018-12-14T08:08:34.426Z,68.19
2018-12-14T08:09:34.405Z,68.76
2018-12-14T08:10:34.376Z,69.32
2018-12-14T08:11:34.366Z,69.04
2018-12-14T08:12:34.338Z,70.07
2018-12-14T08:13:34.869Z,70.17
2018-12-14T08:14:34.288Z,70.26
2018-12-14T08:15:34.276Z,70.07
2018-12-14T08:16:34.242Z,70.26
2018-12-14T08:17:34.232Z,70.73
2018-12-14T08:18:34.203Z,71.30
2018-12-14T08:19:34.178Z,71.40
2018-12-14T08:20:34.169Z,71.77
2018-12-14T08:21:34.133Z,71.96
2018-12-14T08:22:34.134Z,72.06
2018-12-14T08:23:34.092Z,72.81
2018-12-14T08:24:34.065Z,73.10
2018-12-14T08:25:34.050Z,72.62
2018-12-14T08:26:34.023Z,71.77
2018-12-14T08:27:34.004Z,71.21
2018-12-14T08:28:33.975Z,70.17
2018-12-14T08:29:33.959Z,70.36
2018-12-14T08:30:33.937Z,69.89
2018-12-14T08:31:33.913Z,70.45
2018-12-14T08:32:33.899Z,70.83
2018-12-14T08:33:33.867Z,70.92
2018-12-14T08:34:33.846Z,71.58
2018-12-14T08:35:33.824Z,71.96
2018-12-14T08:36:33.804Z,71.87
2018-12-14T08:37:33.782Z,71.87
2018-12-14T08:38:33.756Z,71.68
2018-12-14T08:39:33.762Z,72.62
2018-12-14T08:40:33.716Z,72.72
2018-12-14T08:41:33.690Z,73.47
2018-12-14T08:42:33.665Z,73.85
2018-12-14T08:43:33.655Z,73.94
2018-12-14T08:44:33.625Z,74.04
2018-12-14T08:45:33.609Z,72.53
2018-12-14T08:46:33.589Z,70.17
2018-12-14T08:47:33.562Z,69.13
2018-12-14T08:48:33.544Z,68.66
2018-12-14T08:49:33.511Z,68.19
2018-12-14T08:50:33.497Z,68.19
2018-12-14T08:51:33.472Z,67.62
2018-12-14T08:52:33.454Z,67.06
2018-12-14T08:53:33.431Z,67.25
2018-12-14T08:54:33.404Z,67.43
2018-12-14T08:55:33.379Z,67.72
2018-12-14T08:56:33.359Z,68.66
2018-12-14T08:57:33.342Z,69.13
2018-12-14T08:58:33.322Z,70.11
2018-12-14T08:59:33.296Z,69.64
2018-12-14T09:00:33.277Z,70.02
2018-12-14T09:01:33.253Z,70.02
2018-12-14T09:02:33.230Z,67.28
2018-12-14T09:03:33.213Z,65.71
2018-12-14T09:04:33.192Z,64.67
2018-12-14T09:05:33.165Z,63.07
2018-12-14T09:06:33.143Z,62.59
2018-12-14T09:07:33.122Z,62.97
2018-12-14T09:08:33.100Z,63.29
2018-12-14T09:09:33.076Z,63.38
2018-12-14T09:10:33.059Z,62.91
2018-12-14T09:11:33.040Z,63.10
2018-12-14T09:12:33.020Z,63.29
2018-12-14T09:13:33.001Z,62.53
2018-12-14T09:14:32.989Z,61.61
2018-12-14T09:15:32.959Z,61.24
2018-12-14T09:16:32.933Z,59.44
2018-12-14T09:17:32.911Z,58.12
2018-12-14T09:18:32.887Z,56.92
2018-12-14T09:19:32.875Z,56.63
2018-12-14T09:20:32.849Z,57.20
2018-12-14T09:21:32.833Z,57.01
2018-12-14T09:22:32.806Z,57.11
2018-12-14T09:23:32.788Z,56.82
2018-12-14T09:24:32.768Z,56.20
2018-12-14T09:25:32.753Z,56.20
2018-12-14T09:26:32.733Z,55.34
2018-12-14T09:27:32.709Z,54.49
2018-12-14T09:28:32.689Z,54.58
2018-12-14T09:29:32.673Z,53.92
2018-12-14T09:30:32.648Z,53.55
2018-12-14T09:31:32.628Z,51.93
2018-12-14T09:32:32.608Z,51.28
2018-12-14T09:33:32.595Z,51.18
2018-12-14T09:34:32.574Z,50.80
2018-12-14T09:35:32.554Z,50.99
2018-12-14T09:36:32.527Z,52.50
2018-12-14T09:37:32.516Z,53.66
2018-12-14T09:38:32.497Z,54.61
2018-12-14T09:39:32.477Z,55.08
2018-12-14T09:40:32.460Z,55.27
2018-12-14T09:41:32.444Z,54.52
2018-12-14T09:42:32.426Z,53.00
2018-12-14T09:43:32.401Z,51.77
2018-12-14T09:44:32.386Z,51.01
2018-12-14T09:45:32.371Z,50.45
2018-12-14T09:46:37.052Z,50.92
2018-12-14T09:47:32.326Z,50.63
2018-12-14T09:48:32.312Z,50.82
2018-12-14T09:49:32.292Z,51.20
2018-12-14T09:50:32.266Z,50.99
2018-12-14T09:51:32.258Z,51.39
2018-12-14T09:52:32.238Z,51.77
2018-12-14T09:53:32.271Z,51.87
2018-12-14T09:54:32.202Z,52.06
2018-12-14T09:55:32.185Z,51.49
2018-12-14T09:56:32.161Z,51.28
2018-12-14T09:57:32.145Z,51.28
2018-12-14T09:58:32.131Z,51.09
2018-12-14T09:59:32.119Z,51.56
2018-12-14T10:00:32.101Z,51.84
2018-12-14T10:01:32.082Z,52.31
2018-12-14T10:02:32.060Z,52.95
2018-12-14T10:03:32.050Z,53.05
2018-12-14T10:04:32.020Z,53.99
2018-12-14T10:05:32.008Z,54.84
2018-12-14T10:06:31.985Z,54.74
2018-12-14T10:07:31.980Z,54.49
2018-12-14T10:08:31.953Z,53.52
2018-12-14T10:09:31.937Z,53.70
2018-12-14T10:10:31.912Z,54.08
2018-12-14T10:11:31.896Z,54.55
2018-12-14T10:12:31.885Z,54.87
2018-12-14T10:13:31.862Z,54.87
2018-12-14T10:14:31.841Z,54.11
2018-12-14T10:15:31.827Z,53.26
2018-12-14T10:16:31.807Z,53.07
2018-12-14T10:17:31.789Z,53.07
2018-12-14T10:18:31.775Z,52.41
2018-12-14T10:19:31.753Z,52.03
2018-12-14T10:20:31.740Z,51.37
2018-12-14T10:21:31.721Z,51.93
2018-12-14T10:22:31.707Z,52.03
2018-12-14T10:23:31.689Z,53.17
2018-12-14T10:24:31.671Z,52.98
2018-12-14T10:25:31.648Z,52.98
2018-12-14T10:26:31.635Z,52.98
2018-12-14T10:27:31.607Z,52.31
2018-12-14T10:28:31.598Z,53.36
2018-12-14T10:29:31.580Z,52.98
2018-12-14T10:30:31.568Z,52.79
2018-12-14T10:31:31.542Z,53.36
2018-12-14T10:32:31.524Z,53.17
2018-12-14T10:33:31.509Z,53.83
2018-12-14T10:34:31.492Z,52.91
2018-12-14T10:35:31.474Z,53.28
2018-12-14T10:36:31.460Z,53.09
2018-12-14T10:37:31.438Z,52.94
2018-12-14T10:38:31.424Z,52.18
2018-12-14T10:39:31.407Z,51.04
2018-12-14T10:40:31.399Z,49.84
2018-12-14T10:41:31.374Z,49.33
2018-12-14T10:42:31.353Z,48.77
2018-12-14T10:43:31.351Z,49.24
2018-12-14T10:44:31.321Z,48.86
2018-12-14T10:45:31.305Z,48.86
2018-12-14T10:46:31.293Z,49.08
2018-12-14T10:47:31.322Z,48.98
2018-12-14T10:48:31.258Z,48.98
2018-12-14T10:49:31.235Z,48.98
2018-12-14T10:50:38.648Z,48.89
2018-12-14T10:51:31.204Z,48.22
2018-12-14T10:52:31.188Z,48.32
2018-12-14T10:53:31.172Z,48.41
2018-12-14T10:54:31.154Z,48.41
2018-12-14T10:55:31.140Z,48.41
2018-12-14T10:56:31.118Z,47.94
2018-12-14T10:57:31.118Z,48.03
2018-12-14T10:58:31.089Z,48.06
2018-12-14T10:59:31.073Z,48.34
2018-12-14T11:00:31.054Z,47.68
2018-12-14T11:01:31.035Z,47.11
2018-12-14T11:02:31.083Z,47.49
2018-12-14T11:03:31.010Z,47.39
2018-12-14T11:04:30.988Z,47.20
2018-12-14T11:05:30.993Z,46.16
2018-12-14T11:06:30.951Z,46.07
2018-12-14T11:07:30.945Z,45.88
2018-12-14T11:08:30.926Z,45.76
2018-12-14T11:09:30.918Z,46.33
2018-12-14T11:10:30.969Z,45.95
2018-12-14T11:11:30.891Z,46.14
2018-12-14T11:12:30.867Z,46.64
2018-12-14T11:13:30.845Z,47.11
2018-12-14T11:14:30.836Z,46.54
2018-12-14T11:15:30.820Z,46.37
2018-12-14T11:16:30.800Z,46.19
2018-12-14T11:17:30.785Z,46.00
2018-12-14T11:18:30.768Z,44.76
2018-12-14T11:19:30.752Z,44.20
2018-12-14T11:20:30.736Z,44.12
2018-12-14T11:21:30.726Z,45.07
2018-12-14T11:22:30.708Z,44.69
2018-12-14T11:23:30.689Z,44.85
2018-12-14T11:24:30.679Z,45.33
2018-12-14T11:25:30.657Z,45.62
2018-12-14T11:26:30.641Z,45.52
2018-12-14T11:27:30.629Z,46.00
2018-12-14T11:28:30.613Z,45.24
2018-12-14T11:29:30.604Z,45.33
2018-12-14T11:30:30.586Z,45.24
2018-12-14T11:31:30.568Z,45.43
2018-12-14T11:32:30.552Z,44.79
2018-12-14T11:33:30.538Z,44.88
2018-12-14T11:34:30.516Z,44.88
2018-12-14T11:35:30.509Z,43.93
2018-12-14T11:36:30.491Z,43.84
2018-12-14T11:37:30.477Z,43.55
2018-12-14T11:38:30.470Z,43.55
2018-12-14T11:39:30.449Z,43.46
2018-12-14T11:40:30.432Z,43.55
2018-12-14T11:41:30.416Z,43.48
2018-12-14T11:42:30.408Z,43.38
2018-12-14T11:43:30.396Z,43.60
2018-12-14T11:44:30.378Z,43.69
2018-12-14T11:45:30.360Z,43.31
2018-12-14T11:46:30.339Z,42.95
2018-12-14T11:47:30.329Z,42.38
2018-12-14T11:48:30.316Z,41.62
2018-12-14T11:49:30.298Z,41.53
2018-12-14T11:50:30.285Z,41.53
2018-12-14T11:51:30.271Z,41.60
2018-12-14T11:52:30.257Z,41.31
2018-12-14T11:53:30.233Z,41.39
2018-12-14T11:54:30.226Z,41.77
2018-12-14T11:55:30.212Z,42.24
2018-12-14T11:56:30.264Z,42.63
2018-12-14T11:57:30.182Z,43.10
2018-12-14T11:58:30.167Z,43.29
2018-12-14T11:59:30.158Z,43.38
2018-12-14T12:00:30.143Z,43.29
2018-12-14T12:01:30.126Z,43.36
2018-12-14T12:02:30.114Z,43.27
2018-12-14T12:03:30.100Z,43.93
2018-12-14T12:04:30.087Z,44.10
2018-12-14T12:05:30.069Z,44.85
2018-12-14T12:06:30.058Z,45.90
2018-12-14T12:07:30.048Z,46.00
2018-12-14T12:08:30.026Z,46.49
2018-12-14T12:09:30.020Z,45.83
2018-12-14T12:10:29.997Z,44.95
2018-12-14T12:11:29.983Z,44.95
2018-12-14T12:12:29.967Z,45.90
2018-12-14T12:13:29.959Z,46.56
2018-12-14T12:14:29.941Z,46.37
2018-12-14T12:15:29.924Z,46.47
2018-12-14T12:16:29.923Z,45.52
2018-12-14T12:17:29.890Z,45.33
2018-12-14T12:18:29.886Z,44.76
2018-12-14T12:19:29.869Z,44.76
2018-12-14T12:20:29.852Z,44.95
2018-12-14T12:21:29.845Z,44.76
2018-12-14T12:22:29.821Z,44.95
2018-12-14T12:23:29.808Z,44.76
2018-12-14T12:24:29.798Z,46.00
2018-12-14T12:25:29.779Z,45.50
2018-12-14T12:26:29.769Z,45.69
2018-12-14T12:27:29.747Z,46.28
2018-12-14T12:28:29.736Z,46.09
2018-12-14T12:29:29.725Z,46.28
2018-12-14T12:30:29.705Z,45.92
2018-12-14T12:31:29.698Z,45.07
2018-12-14T12:32:29.678Z,45.17
2018-12-14T12:33:29.666Z,43.67
2018-12-14T12:34:29.647Z,43.57
2018-12-14T12:35:29.632Z,43.48
2018-12-14T12:36:29.625Z,43.29
2018-12-14T12:37:29.607Z,43.10
2018-12-14T12:38:29.597Z,42.72
2018-12-14T12:39:29.579Z,42.63
2018-12-14T12:40:29.565Z,42.82
2018-12-14T12:41:29.553Z,43.01
2018-12-14T12:42:29.538Z,43.27
2018-12-14T12:43:29.530Z,43.65
2018-12-14T12:44:33.566Z,43.84
2018-12-14T12:45:29.505Z,43.65
2018-12-14T12:46:29.477Z,44.02
2018-12-14T12:47:29.477Z,43.55
2018-12-14T12:48:29.460Z,43.27
2018-12-14T12:49:29.438Z,42.98
2018-12-14T12:50:30.317Z,42.70
2018-12-14T12:51:29.414Z,43.27
2018-12-14T12:52:29.394Z,43.15